Scranton, Kansas
Current Conditions -  °F | °C
As of 10:53 PM on Thursday 20 Nov 2014 (Local Time) from KFOE Reporting Station
Clear Clear  
Wind Chill: 20°   Ceiling: Unl
Heat Index: 27°   Visibility: 10mi
Dew Point: 17°   Wind: 6mph
Humidity: 66%   Direction: 80°E
Pressure: 30.24"   Gusts: NA
Location:  38.78°N, 95.74°W
Report Text: KFOE 210453Z AUTO 08005KT 10SM CLR M03/M08 A3024 RMK AO2 SLP249 T10281083
Loading
Personal Weather Stations






























Interactive Weather Map New forecast layout! Learn more

10-Day Weather Forecast

Advertisements
Track Severe Weather on mobile